Time;durP1;ratioP1;P1;durP2;ratioP2;P2;SDS_P1;SDS_P2;PMS_P1;PMS_P2;Temp;Humidity;BMP_temperature;BMP_pressure;BME280_temperature;BME280_humidity;BME280_pressure;Samples;Min_cycle;Max_cycle;Signal;HPM_P1;HPM_P2
2022/07/08 00:01:09;;;;;;;4.03;3.05;;;;;;;;;;4998611;28;20410;-86
2022/07/08 00:03:35;;;;;;;4.75;2.83;;;;;;;;;;4966011;28;20407;-86
2022/07/08 00:06:01;;;;;;;6.40;2.97;;;;;;;;;;4997786;28;20037;-85
2022/07/08 00:08:27;;;;;;;4.20;2.97;;;;;;;;;;4997647;28;20036;-86
2022/07/08 00:10:53;;;;;;;5.13;3.05;;;;;;;;;;4981426;28;20104;-86
2022/07/08 00:13:19;;;;;;;5.25;3.10;;;;;;;;;;4980466;28;20030;-86
2022/07/08 00:15:44;;;;;;;5.82;2.92;;;;;;;;;;4998025;28;20038;-85
2022/07/08 00:18:10;;;;;;;6.82;2.90;;;;;;;;;;4998073;28;20060;-86
2022/07/08 00:20:36;;;;;;;5.53;3.08;;;;;;;;;;4997318;28;20027;-86
2022/07/08 00:23:01;;;;;;;5.30;3.17;;;;;;;;;;4981179;28;20034;-85
2022/07/08 00:25:27;;;;;;;6.63;3.08;;;;;;;;;;4981500;28;20053;-86
2022/07/08 00:27:53;;;;;;;4.35;3.03;;;;;;;;;;4997125;28;20112;-86
2022/07/08 00:30:18;;;;;;;4.88;3.13;;;;;;;;;;4980730;28;20043;-85
2022/07/08 00:32:44;;;;;;;4.18;3.28;;;;;;;;;;4998768;28;20030;-85
2022/07/08 00:35:09;;;;;;;3.90;3.40;;;;;;;;;;4997408;28;20038;-86
2022/07/08 00:37:35;;;;;;;4.68;3.40;;;;;;;;;;5000941;28;20072;-85
2022/07/08 00:40:01;;;;;;;4.53;3.20;;;;;;;;;;5002242;28;20065;-86
2022/07/08 00:42:27;;;;;;;4.20;3.17;;;;;;;;;;5001884;28;20030;-85
2022/07/08 00:44:53;;;;;;;5.45;3.30;;;;;;;;;;4985018;28;20038;-85
2022/07/08 00:47:18;;;;;;;3.95;3.35;;;;;;;;;;5001314;28;20034;-86
2022/07/08 00:49:44;;;;;;;4.72;3.38;;;;;;;;;;4985016;28;20046;-86
2022/07/08 00:52:10;;;;;;;4.68;3.38;;;;;;;;;;5001107;28;20042;-85
2022/07/08 00:54:37;;;;;;;4.10;3.28;;;;;;;;;;5001590;28;20380;-85
2022/07/08 00:57:03;;;;;;;5.63;3.60;;;;;;;;;;5003026;28;20513;-85
2022/07/08 00:59:28;;;;;;;4.78;3.35;;;;;;;;;;4985044;28;20038;-85
2022/07/08 01:01:54;;;;;;;7.00;3.22;;;;;;;;;;4985417;28;20026;-86
2022/07/08 01:04:19;;;;;;;5.30;3.60;;;;;;;;;;4984666;28;20502;-86
2022/07/08 01:06:45;;;;;;;5.63;3.45;;;;;;;;;;5001161;28;20037;-87
2022/07/08 01:09:13;;;;;;;5.30;3.70;;;;;;;;;;5001654;28;20084;-86
2022/07/08 01:11:38;;;;;;;4.65;3.60;;;;;;;;;;4984308;28;20041;-86
2022/07/08 01:14:04;;;;;;;7.35;3.65;;;;;;;;;;4985475;28;20026;-86
2022/07/08 01:16:30;;;;;;;4.88;3.42;;;;;;;;;;4985713;28;20038;-86
2022/07/08 01:18:56;;;;;;;5.10;3.33;;;;;;;;;;4985565;28;20057;-86
2022/07/08 01:21:21;;;;;;;5.70;3.58;;;;;;;;;;5001987;28;20022;-86
2022/07/08 01:23:47;;;;;;;8.20;3.47;;;;;;;;;;4985247;28;20034;-86
2022/07/08 01:26:13;;;;;;;4.72;3.15;;;;;;;;;;5001391;28;20077;-86
2022/07/08 01:28:41;;;;;;;8.50;3.30;;;;;;;;;;4985399;28;20041;-85
2022/07/08 01:31:06;;;;;;;4.85;3.33;;;;;;;;;;4989970;28;20411;-86
2022/07/08 01:33:32;;;;;;;4.53;3.20;;;;;;;;;;5002727;28;20040;-86
2022/07/08 01:35:58;;;;;;;3.65;3.10;;;;;;;;;;5001202;28;20040;-85
2022/07/08 01:38:23;;;;;;;4.65;3.10;;;;;;;;;;4984753;28;20034;-84
2022/07/08 01:40:49;;;;;;;3.00;2.70;;;;;;;;;;5002578;28;20092;-87
2022/07/08 01:43:15;;;;;;;3.72;2.90;;;;;;;;;;4985874;28;20049;-87
2022/07/08 01:45:40;;;;;;;6.63;3.30;;;;;;;;;;4985589;28;20041;-87
2022/07/08 01:48:07;;;;;;;4.93;3.40;;;;;;;;;;5001590;28;20451;-86
2022/07/08 01:50:33;;;;;;;5.57;3.08;;;;;;;;;;5002012;28;20093;-86
2022/07/08 01:52:59;;;;;;;4.18;3.38;;;;;;;;;;5001032;28;20081;-86
2022/07/08 01:55:25;;;;;;;3.47;3.08;;;;;;;;;;5000577;28;20038;-84
2022/07/08 01:57:50;;;;;;;4.85;3.70;;;;;;;;;;5000945;28;20030;-85
2022/07/08 02:00:16;;;;;;;4.97;3.50;;;;;;;;;;5002021;28;20185;-84
2022/07/08 02:02:42;;;;;;;5.55;3.58;;;;;;;;;;4984546;28;20034;-85
2022/07/08 02:05:09;;;;;;;7.20;3.88;;;;;;;;;;5000105;28;20034;-85
2022/07/08 02:07:35;;;;;;;5.28;3.60;;;;;;;;;;4984329;28;20038;-85
2022/07/08 02:10:01;;;;;;;5.75;4.03;;;;;;;;;;4967752;28;20034;-85
2022/07/08 02:12:26;;;;;;;6.38;4.20;;;;;;;;;;4999391;28;20061;-84
2022/07/08 02:15:03;;;;;;;6.90;3.60;;;;;;;;;;4983743;28;20113;-85
2022/07/08 02:17:41;;;;;;;4.80;3.70;;;;;;;;;;4983566;28;20049;-85
2022/07/08 02:20:10;;;;;;;4.82;3.35;;;;;;;;;;4999732;28;20399;-85
2022/07/08 02:22:37;;;;;;;4.03;3.58;;;;;;;;;;4999799;28;20506;-85
2022/07/08 02:25:03;;;;;;;5.63;3.72;;;;;;;;;;4982980;28;20033;-85
2022/07/08 02:27:29;;;;;;;6.68;3.55;;;;;;;;;;4983179;28;20039;-85
2022/07/08 02:29:54;;;;;;;3.80;3.40;;;;;;;;;;4983202;28;20045;-84
2022/07/08 02:32:20;;;;;;;4.35;3.75;;;;;;;;;;4999662;28;20026;-85
2022/07/08 02:34:46;;;;;;;4.18;3.38;;;;;;;;;;4999201;28;20523;-85
2022/07/08 02:37:13;;;;;;;5.80;3.60;;;;;;;;;;4999349;28;20038;-86
2022/07/08 02:39:39;;;;;;;5.07;3.88;;;;;;;;;;4982794;28;20125;-85
2022/07/08 02:42:05;;;;;;;7.22;3.95;;;;;;;;;;4999300;28;20054;-85
2022/07/08 02:44:30;;;;;;;5.30;3.90;;;;;;;;;;4999644;28;20038;-85
2022/07/08 02:46:56;;;;;;;5.40;3.40;;;;;;;;;;4982333;28;20061;-85
2022/07/08 02:49:22;;;;;;;5.45;4.03;;;;;;;;;;4981709;28;20511;-85
2022/07/08 02:51:48;;;;;;;5.78;4.10;;;;;;;;;;4998451;28;20038;-85
2022/07/08 02:54:14;;;;;;;5.53;3.70;;;;;;;;;;4981372;28;20096;-85
2022/07/08 02:56:39;;;;;;;5.47;4.03;;;;;;;;;;4981830;28;20037;-85
2022/07/08 02:59:05;;;;;;;5.97;4.10;;;;;;;;;;4997696;28;20117;-85
2022/07/08 03:01:31;;;;;;;7.53;4.55;;;;;;;;;;4982276;28;20113;-85
2022/07/08 03:03:57;;;;;;;7.20;4.63;;;;;;;;;;4981974;28;20510;-83
2022/07/08 03:06:22;;;;;;;8.00;4.47;;;;;;;;;;4997820;28;20105;-85
2022/07/08 03:08:48;;;;;;;7.40;4.40;;;;;;;;;;4981216;28;20030;-84
2022/07/08 03:11:14;;;;;;;5.65;4.20;;;;;;;;;;4997496;28;20108;-85
2022/07/08 03:13:40;;;;;;;5.05;3.80;;;;;;;;;;4981327;28;20049;-85
2022/07/08 03:16:07;;;;;;;6.53;4.35;;;;;;;;;;4981505;28;20054;-85
2022/07/08 03:18:36;;;;;;;6.40;3.90;;;;;;;;;;4981621;28;20030;-85
2022/07/08 03:21:03;;;;;;;7.03;4.80;;;;;;;;;;4980845;28;20558;-85
2022/07/08 03:23:32;;;;;;;7.70;4.07;;;;;;;;;;4997715;28;20042;-84
2022/07/08 03:25:58;;;;;;;6.43;4.50;;;;;;;;;;4980467;28;20069;-86
2022/07/08 03:28:23;;;;;;;3.95;2.75;;;;;;;;;;4997734;28;20327;-84
2022/07/08 03:30:49;;;;;;;9.35;2.85;;;;;;;;;;4997996;28;20034;-86
2022/07/08 03:33:15;;;;;;;5.78;2.58;;;;;;;;;;4981589;28;20073;-86
2022/07/08 03:35:40;;;;;;;5.25;2.20;;;;;;;;;;4998132;28;20026;-86
2022/07/08 03:38:06;;;;;;;5.95;2.35;;;;;;;;;;4980465;28;20030;-85
2022/07/08 03:43:16;;;;;;;4.45;1.98;;;;;;;;;;4999650;28;20046;-86
2022/07/08 03:45:41;;;;;;;5.35;1.60;;;;;;;;;;4980422;28;20018;-85
2022/07/08 03:48:07;;;;;;;4.13;1.55;;;;;;;;;;4997499;28;20491;-85
2022/07/08 03:50:32;;;;;;;6.55;1.60;;;;;;;;;;4979947;28;20034;-85
2022/07/08 03:52:58;;;;;;;4.60;1.60;;;;;;;;;;4996588;28;20030;-85
2022/07/08 03:55:25;;;;;;;5.13;1.60;;;;;;;;;;4980421;28;20092;-85
2022/07/08 03:57:51;;;;;;;6.75;1.90;;;;;;;;;;4995601;28;20068;-85
2022/07/08 04:00:17;;;;;;;6.47;1.60;;;;;;;;;;4995945;28;20041;-85
2022/07/08 04:02:42;;;;;;;4.75;1.60;;;;;;;;;;4995400;28;20491;-86
2022/07/08 04:05:08;;;;;;;6.45;1.90;;;;;;;;;;4996377;28;20034;-86
2022/07/08 04:07:34;;;;;;;6.80;1.98;;;;;;;;;;4994945;28;20105;-85
2022/07/08 04:10:00;;;;;;;7.07;2.00;;;;;;;;;;4979060;28;20037;-86
2022/07/08 04:12:25;;;;;;;4.70;1.67;;;;;;;;;;4996519;28;20038;-86
2022/07/08 04:14:51;;;;;;;5.28;2.00;;;;;;;;;;4979484;28;20070;-86
2022/07/08 04:17:17;;;;;;;4.50;1.70;;;;;;;;;;4995569;28;20045;-86
2022/07/08 04:19:42;;;;;;;4.80;2.00;;;;;;;;;;4979938;28;20068;-85
2022/07/08 04:22:08;;;;;;;4.00;1.80;;;;;;;;;;4978942;28;20079;-85
2022/07/08 04:24:33;;;;;;;6.07;1.90;;;;;;;;;;4978559;28;20037;-85
2022/07/08 04:26:59;;;;;;;4.13;1.60;;;;;;;;;;4997965;28;20045;-84
2022/07/08 04:29:25;;;;;;;5.10;1.55;;;;;;;;;;5006281;28;20042;-85
2022/07/08 04:31:51;;;;;;;5.35;1.52;;;;;;;;;;4989740;28;20085;-85
2022/07/08 04:34:16;;;;;;;3.80;1.60;;;;;;;;;;4989041;28;20030;-84
2022/07/08 04:36:42;;;;;;;4.32;1.70;;;;;;;;;;4989388;28;20038;-85
2022/07/08 04:39:07;;;;;;;4.03;1.50;;;;;;;;;;4989770;28;20038;-85
2022/07/08 04:41:33;;;;;;;3.53;1.30;;;;;;;;;;4989815;28;20038;-85
2022/07/08 04:43:59;;;;;;;2.60;1.30;;;;;;;;;;5005945;28;20046;-83
2022/07/08 04:46:24;;;;;;;5.63;1.60;;;;;;;;;;4990113;28;20148;-85
2022/07/08 04:48:50;;;;;;;5.35;1.40;;;;;;;;;;4988788;28;20121;-85
2022/07/08 04:51:15;;;;;;;5.70;1.52;;;;;;;;;;5006829;28;20180;-85
2022/07/08 04:53:41;;;;;;;4.82;2.03;;;;;;;;;;5005387;28;20042;-84
2022/07/08 04:56:07;;;;;;;6.00;1.70;;;;;;;;;;5004880;28;20065;-85
2022/07/08 04:58:32;;;;;;;4.95;1.60;;;;;;;;;;5006257;28;20042;-84
2022/07/08 05:00:58;;;;;;;5.57;1.75;;;;;;;;;;4988433;28;20041;-84
2022/07/08 05:03:24;;;;;;;5.03;1.63;;;;;;;;;;5006267;28;20034;-84
2022/07/08 05:05:49;;;;;;;6.13;1.48;;;;;;;;;;5005521;28;20030;-85
2022/07/08 05:08:15;;;;;;;7.00;1.77;;;;;;;;;;5005204;28;20099;-84
2022/07/08 05:10:40;;;;;;;3.97;1.63;;;;;;;;;;4988917;28;20134;-84
2022/07/08 05:13:07;;;;;;;6.65;1.90;;;;;;;;;;5005158;28;20034;-84
2022/07/08 05:15:33;;;;;;;6.40;1.92;;;;;;;;;;4988777;28;20066;-84
2022/07/08 05:17:59;;;;;;;7.13;2.85;;;;;;;;;;4989252;28;20034;-84
2022/07/08 05:20:25;;;;;;;6.85;2.80;;;;;;;;;;4989617;28;20054;-83
2022/07/08 05:22:51;;;;;;;5.28;2.33;;;;;;;;;;5005844;28;20038;-84
2022/07/08 05:25:16;;;;;;;5.05;1.88;;;;;;;;;;5008279;28;20018;-84
2022/07/08 05:27:42;;;;;;;3.78;1.73;;;;;;;;;;5008914;28;20038;-84
2022/07/08 05:30:10;;;;;;;4.78;1.60;;;;;;;;;;5009461;28;20045;-84
2022/07/08 05:32:36;;;;;;;7.15;1.85;;;;;;;;;;4991801;28;20038;-84
2022/07/08 05:35:05;;;;;;;7.65;1.80;;;;;;;;;;5008815;28;20090;-85
2022/07/08 05:37:31;;;;;;;9.32;1.85;;;;;;;;;;4992830;28;20038;-85
2022/07/08 05:39:58;;;;;;;6.18;1.60;;;;;;;;;;5008539;28;20447;-83
2022/07/08 05:42:23;;;;;;;8.50;2.13;;;;;;;;;;5008217;28;20022;-84
2022/07/08 05:44:49;;;;;;;5.45;1.67;;;;;;;;;;4992917;28;20134;-84
2022/07/08 05:47:15;;;;;;;6.93;1.75;;;;;;;;;;5010133;28;20049;-84
2022/07/08 05:49:43;;;;;;;7.25;1.50;;;;;;;;;;4992246;28;20070;-84
2022/07/08 05:52:10;;;;;;;5.72;1.55;;;;;;;;;;4992138;28;20114;-84
2022/07/08 05:54:36;;;;;;;6.15;1.75;;;;;;;;;;5008344;28;20046;-83
2022/07/08 05:57:02;;;;;;;5.47;1.70;;;;;;;;;;4992240;28;20062;-84
2022/07/08 05:59:28;;;;;;;4.88;1.77;;;;;;;;;;4992038;28;20041;-84
2022/07/08 06:01:54;;;;;;;3.55;1.42;;;;;;;;;;5008708;28;20021;-84
2022/07/08 06:04:19;;;;;;;5.38;1.63;;;;;;;;;;4991470;28;20042;-84
2022/07/08 06:06:45;;;;;;;7.22;1.75;;;;;;;;;;4991742;28;20100;-84
2022/07/08 06:09:13;;;;;;;5.05;1.65;;;;;;;;;;5008096;28;20168;-84
2022/07/08 06:11:39;;;;;;;4.18;2.00;;;;;;;;;;4991132;28;20125;-84
2022/07/08 06:14:05;;;;;;;6.25;2.42;;;;;;;;;;5008205;28;20034;-84
2022/07/08 06:16:30;;;;;;;7.85;2.53;;;;;;;;;;4992085;28;20057;-83
2022/07/08 06:18:56;;;;;;;7.63;2.03;;;;;;;;;;5007871;28;20049;-83
2022/07/08 06:21:22;;;;;;;3.83;1.70;;;;;;;;;;5007945;28;20018;-83
2022/07/08 06:23:47;;;;;;;6.28;2.00;;;;;;;;;;5007560;28;20104;-84
2022/07/08 06:26:13;;;;;;;6.45;1.70;;;;;;;;;;5007954;28;20045;-84
2022/07/08 06:28:39;;;;;;;5.07;1.80;;;;;;;;;;4992030;28;20134;-83
2022/07/08 06:31:05;;;;;;;9.75;2.05;;;;;;;;;;5008340;28;20049;-86
2022/07/08 06:33:30;;;;;;;5.68;1.80;;;;;;;;;;5008930;28;20058;-85
2022/07/08 06:35:56;;;;;;;5.53;1.70;;;;;;;;;;5007291;28;20033;-85
2022/07/08 06:38:22;;;;;;;7.53;1.90;;;;;;;;;;4991919;28;20567;-85
2022/07/08 06:40:47;;;;;;;5.95;1.75;;;;;;;;;;5008631;28;20041;-85
2022/07/08 06:43:13;;;;;;;5.70;1.92;;;;;;;;;;4991226;28;20045;-85
2022/07/08 06:45:38;;;;;;;7.32;1.50;;;;;;;;;;5007842;28;20034;-85
2022/07/08 06:48:05;;;;;;;5.72;1.52;;;;;;;;;;4991333;28;20031;-85
2022/07/08 06:50:30;;;;;;;7.13;1.63;;;;;;;;;;4991723;28;20030;-84
2022/07/08 06:52:57;;;;;;;3.85;1.55;;;;;;;;;;4990895;28;20107;-84
2022/07/08 06:55:22;;;;;;;5.43;1.70;;;;;;;;;;4991027;28;20129;-84
2022/07/08 06:57:48;;;;;;;8.70;1.88;;;;;;;;;;5007614;28;20038;-84
2022/07/08 07:00:15;;;;;;;9.18;1.70;;;;;;;;;;4991460;28;20034;-84
2022/07/08 07:02:41;;;;;;;4.85;1.55;;;;;;;;;;5008633;28;20046;-84
2022/07/08 07:05:08;;;;;;;6.35;1.80;;;;;;;;;;5006861;28;20042;-84
2022/07/08 07:07:33;;;;;;;5.93;1.77;;;;;;;;;;4991242;28;20045;-84
2022/07/08 07:09:59;;;;;;;7.53;1.90;;;;;;;;;;5006558;28;20026;-84
2022/07/08 07:12:25;;;;;;;6.40;2.38;;;;;;;;;;5007238;28;20513;-83
2022/07/08 07:14:51;;;;;;;6.28;2.25;;;;;;;;;;4990831;28;20049;-84
2022/07/08 07:17:21;;;;;;;6.55;2.10;;;;;;;;;;5007321;28;20014;-84
2022/07/08 07:19:47;;;;;;;6.03;2.00;;;;;;;;;;5008604;28;20034;-83
2022/07/08 07:22:14;;;;;;;6.03;2.05;;;;;;;;;;5006615;28;20057;-84
2022/07/08 07:24:40;;;;;;;4.40;2.13;;;;;;;;;;5007575;28;20057;-84
2022/07/08 07:27:06;;;;;;;5.00;2.13;;;;;;;;;;4991240;28;20030;-83
2022/07/08 07:29:32;;;;;;;7.50;2.20;;;;;;;;;;5007559;28;20113;-84
2022/07/08 07:31:58;;;;;;;6.65;2.20;;;;;;;;;;5007174;28;20034;-85
2022/07/08 07:34:24;;;;;;;5.32;2.00;;;;;;;;;;4990221;28;20068;-84
2022/07/08 07:36:49;;;;;;;5.50;1.70;;;;;;;;;;5007390;28;20038;-84
2022/07/08 07:39:15;;;;;;;7.22;1.90;;;;;;;;;;4991296;28;20541;-84
2022/07/08 07:41:41;;;;;;;7.90;1.95;;;;;;;;;;4990738;28;20026;-84
2022/07/08 07:44:06;;;;;;;4.53;1.67;;;;;;;;;;4990834;28;20038;-83
2022/07/08 07:46:33;;;;;;;6.68;1.58;;;;;;;;;;4990326;28;20027;-84
2022/07/08 07:48:59;;;;;;;5.28;1.58;;;;;;;;;;5006851;28;20057;-82
2022/07/08 07:51:24;;;;;;;7.82;1.75;;;;;;;;;;5006350;28;20043;-83
2022/07/08 07:53:50;;;;;;;6.07;1.75;;;;;;;;;;5006980;28;20040;-84
2022/07/08 07:56:16;;;;;;;6.30;1.80;;;;;;;;;;4990092;28;20045;-83
2022/07/08 07:58:41;;;;;;;6.55;1.80;;;;;;;;;;5006898;28;20038;-84
2022/07/08 08:01:07;;;;;;;5.15;1.67;;;;;;;;;;4990456;28;20106;-84
2022/07/08 08:03:33;;;;;;;5.10;1.52;;;;;;;;;;4990433;28;20038;-85
2022/07/08 08:05:59;;;;;;;2.85;1.60;;;;;;;;;;4990357;28;20038;-85
2022/07/08 08:08:25;;;;;;;5.88;1.50;;;;;;;;;;4990048;28;20030;-85
2022/07/08 08:10:52;;;;;;;6.20;1.63;;;;;;;;;;4990997;28;20041;-85
2022/07/08 08:13:19;;;;;;;5.22;1.70;;;;;;;;;;5007073;28;20034;-84
2022/07/08 08:15:45;;;;;;;6.63;1.50;;;;;;;;;;5007819;28;20085;-84
2022/07/08 08:18:11;;;;;;;5.75;1.70;;;;;;;;;;4990687;28;20035;-83
2022/07/08 08:20:37;;;;;;;4.93;1.35;;;;;;;;;;4990241;28;20057;-83
2022/07/08 08:23:03;;;;;;;5.45;1.75;;;;;;;;;;4990367;28;20061;-84
2022/07/08 08:25:30;;;;;;;7.22;1.50;;;;;;;;;;5007720;28;20033;-84
2022/07/08 08:27:56;;;;;;;7.45;1.73;;;;;;;;;;4990501;28;20572;-83
2022/07/08 08:30:22;;;;;;;4.05;1.50;;;;;;;;;;5007298;28;20035;-85
2022/07/08 08:32:47;;;;;;;5.63;1.80;;;;;;;;;;4990535;28;20073;-84
2022/07/08 08:35:13;;;;;;;7.07;1.60;;;;;;;;;;4989637;28;20061;-85
2022/07/08 08:37:39;;;;;;;6.05;1.50;;;;;;;;;;5006619;28;20025;-85
2022/07/08 08:40:07;;;;;;;5.22;1.60;;;;;;;;;;5006518;28;20435;-85
2022/07/08 08:42:33;;;;;;;12.02;2.05;;;;;;;;;;4989945;28;20407;-84
2022/07/08 08:44:59;;;;;;;8.30;1.52;;;;;;;;;;5006463;28;20042;-84
2022/07/08 08:47:30;;;;;;;4.03;1.50;;;;;;;;;;5005897;28;20034;-84
2022/07/08 08:50:53;;;;;;;5.97;1.63;;;;;;;;;;5006060;28;20038;-85
2022/07/08 08:52:48;;;;;;;4.80;1.70;;;;;;;;;;5006352;28;20039;-84
2022/07/08 08:55:27;;;;;;;5.13;1.77;;;;;;;;;;5006917;28;20050;-83
2022/07/08 08:58:11;;;;;;;8.48;1.73;;;;;;;;;;4992092;28;20038;-85
2022/07/08 09:00:37;;;;;;;6.78;1.60;;;;;;;;;;5011143;28;20026;-83
2022/07/08 09:03:03;;;;;;;6.90;1.77;;;;;;;;;;4993798;28;20034;-83
2022/07/08 09:05:29;;;;;;;7.05;1.83;;;;;;;;;;5010271;28;20042;-84
2022/07/08 09:07:56;;;;;;;4.80;1.60;;;;;;;;;;5010062;28;20034;-84
2022/07/08 09:10:22;;;;;;;4.68;1.55;;;;;;;;;;5009383;28;20043;-84
2022/07/08 09:13:10;;;;;;;5.57;1.55;;;;;;;;;;5010842;28;20042;-84
2022/07/08 09:15:44;;;;;;;5.78;1.77;;;;;;;;;;5009648;28;20042;-84
2022/07/08 09:18:14;;;;;;;3.95;1.40;;;;;;;;;;4993190;28;20034;-84
2022/07/08 09:20:44;;;;;;;4.60;1.80;;;;;;;;;;5010591;28;20042;-83
2022/07/08 09:23:17;;;;;;;5.47;1.70;;;;;;;;;;5009348;28;20041;-84
2022/07/08 09:25:45;;;;;;;;;;;;;;;;;;5009907;28;20106;-83
2022/07/08 09:28:10;;;;;;;5.22;1.63;;;;;;;;;;5008888;28;19999;-83
2022/07/08 09:30:36;;;;;;;4.78;1.80;;;;;;;;;;5010746;28;20034;-84
2022/07/08 09:33:03;;;;;;;5.68;1.80;;;;;;;;;;5009165;28;20183;-84
2022/07/08 09:35:36;;;;;;;6.47;1.80;;;;;;;;;;4993224;28;20030;-83
2022/07/08 09:38:09;;;;;;;7.25;1.50;;;;;;;;;;4993263;28;20081;-84
2022/07/08 09:40:36;;;;;;;6.20;1.85;;;;;;;;;;4993077;28;20038;-84
2022/07/08 09:43:11;;;;;;;4.97;1.77;;;;;;;;;;4993036;28;20038;-83
2022/07/08 09:45:37;;;;;;;6.00;1.80;;;;;;;;;;5008977;28;20045;-84
2022/07/08 09:48:07;;;;;;;5.18;1.60;;;;;;;;;;4992660;28;20026;-84
2022/07/08 09:50:40;;;;;;;7.93;1.77;;;;;;;;;;5010176;28;20064;-84
2022/07/08 09:53:14;;;;;;;4.35;1.70;;;;;;;;;;4991997;28;20049;-83
2022/07/08 09:55:51;;;;;;;5.75;1.52;;;;;;;;;;4992153;28;20057;-83
2022/07/08 09:58:21;;;;;;;5.93;1.70;;;;;;;;;;5009917;28;20375;-82
2022/07/08 10:00:52;;;;;;;7.63;1.73;;;;;;;;;;4992385;28;20038;-83
2022/07/08 10:03:19;;;;;;;7.72;1.50;;;;;;;;;;5008633;28;20045;-83
2022/07/08 10:05:46;;;;;;;3.08;1.48;;;;;;;;;;4992944;28;20064;-84
2022/07/08 10:08:12;;;;;;;5.72;1.60;;;;;;;;;;4991858;28;20053;-83
2022/07/08 10:10:39;;;;;;;4.07;1.52;;;;;;;;;;5007737;28;20044;-84
2022/07/08 10:13:05;;;;;;;6.47;1.60;;;;;;;;;;4991552;28;20049;-84
2022/07/08 10:15:33;;;;;;;4.50;1.70;;;;;;;;;;5007575;28;20050;-84
2022/07/08 10:18:20;;;;;;;5.15;1.65;;;;;;;;;;4992368;28;20069;-84
2022/07/08 10:20:49;;;;;;;6.57;1.65;;;;;;;;;;4991787;28;20037;-83
2022/07/08 10:23:21;;;;;;;3.63;1.42;;;;;;;;;;5007763;28;20085;-84
2022/07/08 10:25:48;;;;;;;5.50;1.70;;;;;;;;;;4991759;28;20038;-84
2022/07/08 10:28:14;;;;;;;5.15;1.85;;;;;;;;;;5001925;28;20458;-85
2022/07/08 10:30:46;;;;;;;6.32;1.60;;;;;;;;;;4981915;28;20030;-85
2022/07/08 10:33:18;;;;;;;4.57;1.70;;;;;;;;;;4998847;28;20034;-85
2022/07/08 10:36:04;;;;;;;5.60;1.55;;;;;;;;;;4982034;28;20030;-85
2022/07/08 10:38:32;;;;;;;8.98;1.70;;;;;;;;;;4997789;28;20523;-85
2022/07/08 10:41:12;;;;;;;8.23;1.90;;;;;;;;;;4981765;28;20113;-85
2022/07/08 10:43:50;;;;;;;5.03;1.60;;;;;;;;;;4981774;28;20494;-85
2022/07/08 10:46:17;;;;;;;7.45;1.88;;;;;;;;;;4981290;28;20030;-85
2022/07/08 10:48:45;;;;;;;5.65;1.60;;;;;;;;;;4981434;28;20515;-85
2022/07/08 10:51:20;;;;;;;6.88;1.92;;;;;;;;;;4981525;28;20030;-85
2022/07/08 10:53:51;;;;;;;4.38;1.70;;;;;;;;;;4982301;28;20041;-85
2022/07/08 10:56:48;;;;;;;9.95;2.10;;;;;;;;;;4981316;28;20084;-85
2022/07/08 10:59:19;;;;;;;5.13;1.80;;;;;;;;;;4998295;28;20287;-85
2022/07/08 11:02:03;;;;;;;5.00;1.90;;;;;;;;;;4981146;28;20030;-85
2022/07/08 11:04:29;;;;;;;5.13;1.77;;;;;;;;;;4981377;28;20054;-85
2022/07/08 11:07:16;;;;;;;6.95;1.80;;;;;;;;;;4997700;28;20057;-84
2022/07/08 11:09:43;;;;;;;10.68;1.75;;;;;;;;;;4980870;28;20042;-85
2022/07/08 11:12:20;;;;;;;6.63;1.73;;;;;;;;;;4996951;28;20026;-85
2022/07/08 11:14:47;;;;;;;5.07;1.63;;;;;;;;;;4980746;28;20038;-85
2022/07/08 11:17:30;;;;;;;7.10;1.65;;;;;;;;;;4996923;28;20034;-85
2022/07/08 11:19:59;;;;;;;4.50;1.45;;;;;;;;;;4980246;28;20041;-85
2022/07/08 11:22:25;;;;;;;5.57;1.60;;;;;;;;;;4996522;28;20034;-85
2022/07/08 11:24:53;;;;;;;5.72;1.60;;;;;;;;;;4998029;28;20030;-85
2022/07/08 11:27:33;;;;;;;3.50;1.50;;;;;;;;;;4980385;28;20042;-84
2022/07/08 11:30:00;;;;;;;5.22;1.52;;;;;;;;;;4980105;28;20031;-85
2022/07/08 11:32:27;;;;;;;6.10;1.70;;;;;;;;;;4996503;28;20108;-84
2022/07/08 11:34:54;;;;;;;5.13;1.73;;;;;;;;;;4996662;28;20042;-85
2022/07/08 11:37:20;;;;;;;8.13;1.60;;;;;;;;;;4980620;28;20399;-85
2022/07/08 11:39:46;;;;;;;5.63;1.65;;;;;;;;;;4980579;28;20523;-85
2022/07/08 11:42:13;;;;;;;3.97;1.40;;;;;;;;;;4979851;28;20061;-85
2022/07/08 11:44:39;;;;;;;4.57;1.58;;;;;;;;;;4996325;28;20030;-85
2022/07/08 11:47:05;;;;;;;4.43;1.50;;;;;;;;;;4979785;28;20034;-85
2022/07/08 11:49:32;;;;;;;3.88;1.38;;;;;;;;;;4996078;28;20498;-85
2022/07/08 11:51:58;;;;;;;4.43;1.90;;;;;;;;;;4979105;28;20030;-85
2022/07/08 11:54:26;;;;;;;5.93;1.70;;;;;;;;;;4978275;28;20040;-85
2022/07/08 11:57:00;;;;;;;7.18;2.03;;;;;;;;;;4979399;28;20089;-85
2022/07/08 11:59:25;;;;;;;4.38;1.58;;;;;;;;;;4997207;28;20635;-85
2022/07/08 12:01:52;;;;;;;7.40;2.45;;;;;;;;;;4995642;28;20044;-85
2022/07/08 12:04:18;;;;;;;4.32;1.70;;;;;;;;;;4996244;28;20054;-85
2022/07/08 12:06:52;;;;;;;4.88;1.73;;;;;;;;;;4995152;28;20026;-85
2022/07/08 12:09:20;;;;;;;6.18;1.63;;;;;;;;;;4978615;28;20034;-85
2022/07/08 12:11:54;;;;;;;6.00;1.65;;;;;;;;;;4995442;28;20122;-85
2022/07/08 12:14:21;;;;;;;6.38;1.80;;;;;;;;;;4979086;28;20149;-84
2022/07/08 12:16:51;;;;;;;6.95;1.95;;;;;;;;;;4979428;28;20038;-85
2022/07/08 12:19:36;;;;;;;6.00;2.00;;;;;;;;;;4979551;28;20052;-84
2022/07/08 12:22:04;;;;;;;4.90;1.73;;;;;;;;;;4995581;28;20026;-85
2022/07/08 12:24:34;;;;;;;2.50;1.50;;;;;;;;;;4978937;28;20022;-85
2022/07/08 12:27:02;;;;;;;8.23;1.90;;;;;;;;;;4978775;28;20049;-85
2022/07/08 12:29:37;;;;;;;4.47;1.63;;;;;;;;;;4979624;28;20388;-85
2022/07/08 12:32:11;;;;;;;6.07;1.58;;;;;;;;;;4978755;28;20030;-85
2022/07/08 12:34:48;;;;;;;7.10;1.58;;;;;;;;;;4995249;28;20112;-85
2022/07/08 12:37:20;;;;;;;5.47;1.67;;;;;;;;;;4979381;28;20035;-85
2022/07/08 12:39:46;;;;;;;9.52;1.77;;;;;;;;;;4996536;28;20042;-85
2022/07/08 12:42:12;;;;;;;4.65;1.58;;;;;;;;;;4979243;28;20081;-85
2022/07/08 12:44:40;;;;;;;5.57;1.80;;;;;;;;;;4978362;28;20046;-85
2022/07/08 12:47:11;;;;;;;6.35;1.80;;;;;;;;;;4979150;28;20046;-85
2022/07/08 12:49:42;;;;;;;6.80;1.90;;;;;;;;;;4978679;28;20034;-85
2022/07/08 12:52:09;;;;;;;4.97;1.38;;;;;;;;;;4995261;28;20034;-85
2022/07/08 12:54:35;;;;;;;5.35;1.65;;;;;;;;;;4978948;28;20053;-85
2022/07/08 12:57:03;;;;;;;6.63;1.90;;;;;;;;;;4996476;28;20034;-85
2022/07/08 12:59:29;;;;;;;4.28;1.40;;;;;;;;;;4995916;28;20062;-85
2022/07/08 13:01:56;;;;;;;5.05;1.95;;;;;;;;;;4995521;28;20046;-85
2022/07/08 13:04:22;;;;;;;6.63;1.50;;;;;;;;;;4979099;28;20054;-84
2022/07/08 13:06:49;;;;;;;4.78;1.50;;;;;;;;;;4994821;28;20058;-84
2022/07/08 13:09:16;;;;;;;3.83;1.27;;;;;;;;;;4979009;28;20323;-85
2022/07/08 13:11:42;;;;;;;5.80;1.52;;;;;;;;;;4978263;28;20141;-84
2022/07/08 13:14:08;;;;;;;4.68;1.70;;;;;;;;;;4996190;28;20051;-85
2022/07/08 13:16:35;;;;;;;6.20;1.60;;;;;;;;;;4997195;28;20034;-86
2022/07/08 13:19:01;;;;;;;7.00;1.60;;;;;;;;;;4995377;28;20031;-85
2022/07/08 13:21:30;;;;;;;9.27;1.80;;;;;;;;;;4978493;28;20058;-85
2022/07/08 13:23:57;;;;;;;4.18;1.50;;;;;;;;;;4994399;28;20034;-84
2022/07/08 13:26:23;;;;;;;6.00;1.50;;;;;;;;;;4994585;28;20133;-85
2022/07/08 13:28:51;;;;;;;5.05;1.60;;;;;;;;;;4996826;28;20450;-85
2022/07/08 13:31:18;;;;;;;5.82;1.50;;;;;;;;;;4995600;28;20096;-85
2022/07/08 13:33:45;;;;;;;5.57;1.50;;;;;;;;;;4978713;28;20458;-85
2022/07/08 13:36:11;;;;;;;7.00;1.65;;;;;;;;;;4994543;28;20034;-84
2022/07/08 13:38:36;;;;;;;6.80;1.77;;;;;;;;;;4978470;28;20044;-85
2022/07/08 13:41:02;;;;;;;6.78;1.50;;;;;;;;;;4978609;28;20121;-85
2022/07/08 13:43:28;;;;;;;6.00;1.58;;;;;;;;;;4994974;28;20066;-85
2022/07/08 13:45:53;;;;;;;3.53;1.40;;;;;;;;;;4998357;28;20045;-85
2022/07/08 13:48:19;;;;;;;7.65;1.77;;;;;;;;;;4998234;28;20035;-84
2022/07/08 13:50:46;;;;;;;4.60;1.60;;;;;;;;;;4998002;28;20042;-85
2022/07/08 13:53:11;;;;;;;5.97;1.58;;;;;;;;;;4982132;28;20514;-84
2022/07/08 13:55:37;;;;;;;6.45;1.50;;;;;;;;;;4998267;28;20374;-85
2022/07/08 13:58:03;;;;;;;4.53;1.70;;;;;;;;;;4997918;28;20114;-85
2022/07/08 14:00:28;;;;;;;6.82;1.90;;;;;;;;;;4997460;28;20046;-85
2022/07/08 14:02:56;;;;;;;5.45;1.52;;;;;;;;;;4997958;28;20049;-85
2022/07/08 14:05:22;;;;;;;8.50;1.70;;;;;;;;;;4998891;28;20034;-87
2022/07/08 14:07:47;;;;;;;4.35;1.50;;;;;;;;;;4997813;28;20041;-85
2022/07/08 14:10:13;;;;;;;5.15;1.42;;;;;;;;;;4981517;28;20057;-87
2022/07/08 14:12:38;;;;;;;9.82;1.60;;;;;;;;;;4997449;28;20518;-87
2022/07/08 14:15:05;;;;;;;3.90;1.65;;;;;;;;;;4997101;28;20086;-87
2022/07/08 14:17:34;;;;;;;7.13;1.80;;;;;;;;;;4980507;28;20045;-86
2022/07/08 14:20:01;;;;;;;6.28;1.50;;;;;;;;;;4981508;28;20052;-87
2022/07/08 14:22:26;;;;;;;7.30;1.80;;;;;;;;;;4981277;28;20125;-87
2022/07/08 14:24:52;;;;;;;5.55;1.92;;;;;;;;;;4981387;28;20100;-87
2022/07/08 14:27:18;;;;;;;6.85;1.60;;;;;;;;;;4997232;28;20034;-87
2022/07/08 14:29:43;;;;;;;4.28;1.42;;;;;;;;;;4997495;28;20065;-86
2022/07/08 14:32:09;;;;;;;5.45;1.65;;;;;;;;;;4997324;28;20088;-85
2022/07/08 14:34:35;;;;;;;5.72;1.70;;;;;;;;;;4980347;28;20058;-86
2022/07/08 14:37:01;;;;;;;5.72;1.67;;;;;;;;;;4997582;28;20041;-87
2022/07/08 14:39:27;;;;;;;4.07;1.70;;;;;;;;;;4997252;28;20053;-86
2022/07/08 14:41:53;;;;;;;6.05;1.40;;;;;;;;;;4980913;28;20037;-86
2022/07/08 14:44:18;;;;;;;7.32;1.90;;;;;;;;;;4981605;28;20504;-86
2022/07/08 14:46:45;;;;;;;5.57;1.80;;;;;;;;;;4996554;28;20093;-86